aviador You're here:

K2G4 Decoded Metar

GARRETT CO in MD, USA
Report Time2018-07-22 15:40:00
UTC Time2018-07-22 15:59:32
Flight Rules mvfr MVFR
Wind100° at 06 kt
W.Rank100° ranks 25
Current wind is below 100° avg. (7.1)
Visibility9999 m
Phenomena:N/A
Clouds:Broken 018 Hf
Expected CloudBase > 1,600 ft AGL from Temp-Dew spread
Ceiling1,800 ft
Temp20°C (ISA +11)
Dew Point16°C (78% RH)
AAT19.8°C
QNH1011 hPa
Density Alt4,514 ft
Elevation2,933 ft
Report Wrong Elevation
Raw Report
K2G4 221540Z AUTO 10006KT 10SM BKN018 20/16 A2985 RMK AO1=

Extra information for K2G4:More info

Metar Taf Metar & Taf Last 4 Metars F.Rules Stats Wind Profile Meteogram Temp Stats Airport Information Weather charts Add Link Nearby VenuesMetar ALERT Operation Metar Decoded Social comments

AIRNAV info for K2G4